sensor_id;sensor_type;location;lat;lon;timestamp;temperature;humidity
51595;DHT22;37677;53.254;6.594;2022-07-04T00:01:03;14.40;86.00
51595;DHT22;37677;53.254;6.594;2022-07-04T00:03:29;13.40;86.10
51595;DHT22;37677;53.254;6.594;2022-07-04T00:05:56;14.50;86.10
51595;DHT22;37677;53.254;6.594;2022-07-04T00:08:22;13.70;87.30
51595;DHT22;37677;53.254;6.594;2022-07-04T00:10:48;13.40;86.30
51595;DHT22;37677;53.254;6.594;2022-07-04T00:13:19;15.00;87.00
51595;DHT22;37677;53.254;6.594;2022-07-04T00:15:45;13.40;86.10
51595;DHT22;37677;53.254;6.594;2022-07-04T00:18:11;13.30;85.80
51595;DHT22;37677;53.254;6.594;2022-07-04T00:20:37;13.40;86.10
51595;DHT22;37677;53.254;6.594;2022-07-04T00:23:07;14.00;86.70
51595;DHT22;37677;53.254;6.594;2022-07-04T00:25:33;13.30;87.70
51595;DHT22;37677;53.254;6.594;2022-07-04T00:27:58;13.80;87.80
51595;DHT22;37677;53.254;6.594;2022-07-04T00:30:24;13.30;87.80
51595;DHT22;37677;53.254;6.594;2022-07-04T00:32:51;13.40;88.00
51595;DHT22;37677;53.254;6.594;2022-07-04T00:35:16;14.60;88.00
51595;DHT22;37677;53.254;6.594;2022-07-04T00:37:42;15.10;88.30
51595;DHT22;37677;53.254;6.594;2022-07-04T00:40:08;13.50;86.60
51595;DHT22;37677;53.254;6.594;2022-07-04T00:42:37;13.50;86.60
51595;DHT22;37677;53.254;6.594;2022-07-04T00:45:03;13.50;85.90
51595;DHT22;37677;53.254;6.594;2022-07-04T00:47:29;13.50;85.30
51595;DHT22;37677;53.254;6.594;2022-07-04T00:49:54;13.80;84.60
51595;DHT22;37677;53.254;6.594;2022-07-04T00:52:20;13.50;83.60
51595;DHT22;37677;53.254;6.594;2022-07-04T00:54:46;13.50;83.30
51595;DHT22;37677;53.254;6.594;2022-07-04T00:57:12;13.50;82.80
51595;DHT22;37677;53.254;6.594;2022-07-04T00:59:38;13.40;82.30
51595;DHT22;37677;53.254;6.594;2022-07-04T01:02:04;13.40;82.40
51595;DHT22;37677;53.254;6.594;2022-07-04T01:04:30;12.90;82.30
51595;DHT22;37677;53.254;6.594;2022-07-04T01:06:56;13.30;82.40
51595;DHT22;37677;53.254;6.594;2022-07-04T01:09:24;14.00;83.40
51595;DHT22;37677;53.254;6.594;2022-07-04T01:11:50;13.30;83.10
51595;DHT22;37677;53.254;6.594;2022-07-04T01:14:16;14.20;83.80
51595;DHT22;37677;53.254;6.594;2022-07-04T01:16:42;13.50;82.70
51595;DHT22;37677;53.254;6.594;2022-07-04T01:19:07;13.30;83.60
51595;DHT22;37677;53.254;6.594;2022-07-04T01:21:33;13.40;83.40
51595;DHT22;37677;53.254;6.594;2022-07-04T01:23:59;13.30;83.50
51595;DHT22;37677;53.254;6.594;2022-07-04T01:26:25;14.40;84.00
51595;DHT22;37677;53.254;6.594;2022-07-04T01:28:52;13.20;83.50
51595;DHT22;37677;53.254;6.594;2022-07-04T01:31:18;13.30;83.90
51595;DHT22;37677;53.254;6.594;2022-07-04T01:33:43;13.20;84.60
51595;DHT22;37677;53.254;6.594;2022-07-04T01:36:09;14.10;84.50
51595;DHT22;37677;53.254;6.594;2022-07-04T01:38:34;13.20;84.20
51595;DHT22;37677;53.254;6.594;2022-07-04T01:41:00;13.30;84.70
51595;DHT22;37677;53.254;6.594;2022-07-04T01:43:26;13.20;84.60
51595;DHT22;37677;53.254;6.594;2022-07-04T01:45:51;14.10;85.20
51595;DHT22;37677;53.254;6.594;2022-07-04T01:48:17;14.80;85.60
51595;DHT22;37677;53.254;6.594;2022-07-04T01:50:43;13.10;84.90
51595;DHT22;37677;53.254;6.594;2022-07-04T01:53:08;13.90;85.20
51595;DHT22;37677;53.254;6.594;2022-07-04T01:55:34;13.20;84.90
51595;DHT22;37677;53.254;6.594;2022-07-04T01:58:00;12.00;83.90
51595;DHT22;37677;53.254;6.594;2022-07-04T02:00:26;12.70;84.60
51595;DHT22;37677;53.254;6.594;2022-07-04T02:03:10;13.10;84.50
51595;DHT22;37677;53.254;6.594;2022-07-04T02:05:36;13.30;85.00
51595;DHT22;37677;53.254;6.594;2022-07-04T02:08:05;13.10;85.10
51595;DHT22;37677;53.254;6.594;2022-07-04T02:10:31;13.10;85.20
51595;DHT22;37677;53.254;6.594;2022-07-04T02:12:57;13.10;85.30
51595;DHT22;37677;53.254;6.594;2022-07-04T02:17:59;13.10;86.10
51595;DHT22;37677;53.254;6.594;2022-07-04T02:20:25;13.10;85.80
51595;DHT22;37677;53.254;6.594;2022-07-04T02:22:51;13.10;86.10
51595;DHT22;37677;53.254;6.594;2022-07-04T02:25:17;13.10;86.20
51595;DHT22;37677;53.254;6.594;2022-07-04T02:27:43;13.00;86.20
51595;DHT22;37677;53.254;6.594;2022-07-04T02:30:11;13.00;85.90
51595;DHT22;37677;53.254;6.594;2022-07-04T02:32:37;13.00;86.10
51595;DHT22;37677;53.254;6.594;2022-07-04T02:35:03;13.70;87.30
51595;DHT22;37677;53.254;6.594;2022-07-04T02:37:29;13.00;86.70
51595;DHT22;37677;53.254;6.594;2022-07-04T02:39:55;13.00;86.40
51595;DHT22;37677;53.254;6.594;2022-07-04T02:42:21;13.00;86.80
51595;DHT22;37677;53.254;6.594;2022-07-04T02:44:46;13.20;86.60
51595;DHT22;37677;53.254;6.594;2022-07-04T02:47:13;12.80;86.40
51595;DHT22;37677;53.254;6.594;2022-07-04T02:49:39;13.00;86.70
51595;DHT22;37677;53.254;6.594;2022-07-04T02:52:05;13.00;87.00
51595;DHT22;37677;53.254;6.594;2022-07-04T02:54:31;13.00;87.00
51595;DHT22;37677;53.254;6.594;2022-07-04T02:56:56;13.00;87.30
51595;DHT22;37677;53.254;6.594;2022-07-04T02:59:22;13.00;87.40
51595;DHT22;37677;53.254;6.594;2022-07-04T03:01:48;13.00;87.80
51595;DHT22;37677;53.254;6.594;2022-07-04T03:04:13;13.00;88.30
51595;DHT22;37677;53.254;6.594;2022-07-04T03:06:39;13.00;88.20
51595;DHT22;37677;53.254;6.594;2022-07-04T03:09:06;13.80;88.60
51595;DHT22;37677;53.254;6.594;2022-07-04T03:11:32;13.00;88.80
51595;DHT22;37677;53.254;6.594;2022-07-04T03:13:58;13.00;88.80
51595;DHT22;37677;53.254;6.594;2022-07-04T03:16:24;13.10;88.60
51595;DHT22;37677;53.254;6.594;2022-07-04T03:18:50;13.10;88.70
51595;DHT22;37677;53.254;6.594;2022-07-04T03:21:15;13.40;89.10
51595;DHT22;37677;53.254;6.594;2022-07-04T03:23:41;13.10;89.00
51595;DHT22;37677;53.254;6.594;2022-07-04T03:26:07;13.10;89.70
51595;DHT22;37677;53.254;6.594;2022-07-04T03:28:32;14.70;90.20
51595;DHT22;37677;53.254;6.594;2022-07-04T03:30:58;13.20;89.60
51595;DHT22;37677;53.254;6.594;2022-07-04T03:33:24;13.20;90.60
51595;DHT22;37677;53.254;6.594;2022-07-04T03:35:50;13.20;90.00
51595;DHT22;37677;53.254;6.594;2022-07-04T03:38:15;12.10;89.10
51595;DHT22;37677;53.254;6.594;2022-07-04T03:40:41;15.20;90.80
51595;DHT22;37677;53.254;6.594;2022-07-04T03:43:09;13.20;90.30
51595;DHT22;37677;53.254;6.594;2022-07-04T03:45:35;14.70;90.80
51595;DHT22;37677;53.254;6.594;2022-07-04T03:48:01;13.20;90.40
51595;DHT22;37677;53.254;6.594;2022-07-04T03:50:35;13.20;90.10
51595;DHT22;37677;53.254;6.594;2022-07-04T03:53:03;11.90;90.00
51595;DHT22;37677;53.254;6.594;2022-07-04T03:55:28;13.40;90.40
51595;DHT22;37677;53.254;6.594;2022-07-04T03:57:54;13.70;90.40
51595;DHT22;37677;53.254;6.594;2022-07-04T04:00:19;13.80;90.50
51595;DHT22;37677;53.254;6.594;2022-07-04T04:02:45;13.30;90.50
51595;DHT22;37677;53.254;6.594;2022-07-04T04:05:11;13.50;90.30
51595;DHT22;37677;53.254;6.594;2022-07-04T04:07:56;13.40;90.40
51595;DHT22;37677;53.254;6.594;2022-07-04T04:10:22;13.50;90.30
51595;DHT22;37677;53.254;6.594;2022-07-04T04:12:48;13.50;90.20
51595;DHT22;37677;53.254;6.594;2022-07-04T04:15:14;13.60;90.30
51595;DHT22;37677;53.254;6.594;2022-07-04T04:17:39;13.60;90.20
51595;DHT22;37677;53.254;6.594;2022-07-04T04:20:05;13.60;90.00
51595;DHT22;37677;53.254;6.594;2022-07-04T04:22:31;13.60;89.80
51595;DHT22;37677;53.254;6.594;2022-07-04T04:24:57;15.10;90.20
51595;DHT22;37677;53.254;6.594;2022-07-04T04:27:23;14.20;89.80
51595;DHT22;37677;53.254;6.594;2022-07-04T04:29:48;13.90;90.10
51595;DHT22;37677;53.254;6.594;2022-07-04T04:32:14;13.90;90.10
51595;DHT22;37677;53.254;6.594;2022-07-04T04:34:40;13.90;90.10
51595;DHT22;37677;53.254;6.594;2022-07-04T04:37:06;14.50;89.60
51595;DHT22;37677;53.254;6.594;2022-07-04T04:39:32;14.10;88.60
51595;DHT22;37677;53.254;6.594;2022-07-04T04:41:57;14.60;88.80
51595;DHT22;37677;53.254;6.594;2022-07-04T04:44:23;14.20;88.90
51595;DHT22;37677;53.254;6.594;2022-07-04T04:46:49;15.40;87.00
51595;DHT22;37677;53.254;6.594;2022-07-04T04:49:22;14.30;85.60
51595;DHT22;37677;53.254;6.594;2022-07-04T04:51:47;14.40;83.50
51595;DHT22;37677;53.254;6.594;2022-07-04T04:54:13;14.80;83.90
51595;DHT22;37677;53.254;6.594;2022-07-04T04:56:39;14.40;83.40
51595;DHT22;37677;53.254;6.594;2022-07-04T04:59:04;14.50;83.00
51595;DHT22;37677;53.254;6.594;2022-07-04T05:01:33;14.90;81.50
51595;DHT22;37677;53.254;6.594;2022-07-04T05:03:59;14.70;81.90
51595;DHT22;37677;53.254;6.594;2022-07-04T05:06:25;14.90;81.50
51595;DHT22;37677;53.254;6.594;2022-07-04T05:08:50;14.60;81.70
51595;DHT22;37677;53.254;6.594;2022-07-04T05:11:16;15.30;81.50
51595;DHT22;37677;53.254;6.594;2022-07-04T05:13:42;14.70;78.10
51595;DHT22;37677;53.254;6.594;2022-07-04T05:16:07;14.70;79.00
51595;DHT22;37677;53.254;6.594;2022-07-04T05:18:33;14.80;78.20
51595;DHT22;37677;53.254;6.594;2022-07-04T05:20:59;14.90;78.30
51595;DHT22;37677;53.254;6.594;2022-07-04T05:23:25;15.00;77.20
51595;DHT22;37677;53.254;6.594;2022-07-04T05:25:50;15.00;75.20
51595;DHT22;37677;53.254;6.594;2022-07-04T05:28:16;16.40;74.80
51595;DHT22;37677;53.254;6.594;2022-07-04T05:30:42;15.30;73.30
51595;DHT22;37677;53.254;6.594;2022-07-04T05:33:08;15.30;73.00
51595;DHT22;37677;53.254;6.594;2022-07-04T05:35:34;15.40;71.10
51595;DHT22;37677;53.254;6.594;2022-07-04T05:38:00;15.40;70.40
51595;DHT22;37677;53.254;6.594;2022-07-04T05:40:25;15.40;71.20
51595;DHT22;37677;53.254;6.594;2022-07-04T05:42:51;15.40;70.70
51595;DHT22;37677;53.254;6.594;2022-07-04T05:45:17;15.40;69.30
51595;DHT22;37677;53.254;6.594;2022-07-04T05:47:43;15.60;68.70
51595;DHT22;37677;53.254;6.594;2022-07-04T05:50:10;15.40;67.90
51595;DHT22;37677;53.254;6.594;2022-07-04T05:52:36;15.40;67.20
51595;DHT22;37677;53.254;6.594;2022-07-04T05:55:01;15.60;71.30
51595;DHT22;37677;53.254;6.594;2022-07-04T05:57:27;16.20;69.20
51595;DHT22;37677;53.254;6.594;2022-07-04T05:59:53;15.60;68.80
51595;DHT22;37677;53.254;6.594;2022-07-04T06:02:19;15.60;65.40
51595;DHT22;37677;53.254;6.594;2022-07-04T06:04:45;15.70;66.20
51595;DHT22;37677;53.254;6.594;2022-07-04T06:07:10;15.80;62.30
51595;DHT22;37677;53.254;6.594;2022-07-04T06:09:36;15.70;64.90
51595;DHT22;37677;53.254;6.594;2022-07-04T06:12:03;15.70;64.70
51595;DHT22;37677;53.254;6.594;2022-07-04T06:14:29;15.70;64.80
51595;DHT22;37677;53.254;6.594;2022-07-04T06:16:55;15.70;65.90
51595;DHT22;37677;53.254;6.594;2022-07-04T06:19:20;15.80;65.70
51595;DHT22;37677;53.254;6.594;2022-07-04T06:24:13;16.00;65.40
51595;DHT22;37677;53.254;6.594;2022-07-04T06:26:39;16.10;65.40
51595;DHT22;37677;53.254;6.594;2022-07-04T06:29:05;15.70;61.40
51595;DHT22;37677;53.254;6.594;2022-07-04T06:31:31;16.20;64.80
51595;DHT22;37677;53.254;6.594;2022-07-04T06:33:57;16.30;64.00
51595;DHT22;37677;53.254;6.594;2022-07-04T06:36:42;16.50;59.60
51595;DHT22;37677;53.254;6.594;2022-07-04T06:39:07;16.60;60.60
51595;DHT22;37677;53.254;6.594;2022-07-04T06:41:33;16.60;57.20
51595;DHT22;37677;53.254;6.594;2022-07-04T06:43:59;16.90;55.60
51595;DHT22;37677;53.254;6.594;2022-07-04T06:46:27;17.10;55.90
51595;DHT22;37677;53.254;6.594;2022-07-04T06:48:53;17.80;54.10
51595;DHT22;37677;53.254;6.594;2022-07-04T06:51:24;17.30;50.60
51595;DHT22;37677;53.254;6.594;2022-07-04T06:53:50;17.20;48.00
51595;DHT22;37677;53.254;6.594;2022-07-04T06:56:18;17.60;46.50
51595;DHT22;37677;53.254;6.594;2022-07-04T07:01:10;17.80;31.10
51595;DHT22;37677;53.254;6.594;2022-07-04T07:06:02;18.50;31.10
51595;DHT22;37677;53.254;6.594;2022-07-04T07:08:29;18.80;7.70
51595;DHT22;37677;53.254;6.594;2022-07-04T07:10:56;18.80;1.00
51595;DHT22;37677;53.254;6.594;2022-07-04T07:13:41;18.50;1.00
51595;DHT22;37677;53.254;6.594;2022-07-04T07:16:07;18.60;10.20
51595;DHT22;37677;53.254;6.594;2022-07-04T07:18:33;18.60;1.00
51595;DHT22;37677;53.254;6.594;2022-07-04T07:20:58;18.60;1.00
51595;DHT22;37677;53.254;6.594;2022-07-04T07:23:24;18.60;1.00
51595;DHT22;37677;53.254;6.594;2022-07-04T07:25:50;18.80;1.00
51595;DHT22;37677;53.254;6.594;2022-07-04T07:28:15;18.90;1.00
51595;DHT22;37677;53.254;6.594;2022-07-04T07:30:41;17.80;2.90
51595;DHT22;37677;53.254;6.594;2022-07-04T07:33:07;19.20;1.00
51595;DHT22;37677;53.254;6.594;2022-07-04T07:35:32;19.10;1.00
51595;DHT22;37677;53.254;6.594;2022-07-04T07:37:58;18.90;1.00
51595;DHT22;37677;53.254;6.594;2022-07-04T07:40:24;18.80;1.00
51595;DHT22;37677;53.254;6.594;2022-07-04T07:42:50;19.20;1.00
51595;DHT22;37677;53.254;6.594;2022-07-04T07:45:15;19.50;1.00
51595;DHT22;37677;53.254;6.594;2022-07-04T07:47:41;19.70;1.00
51595;DHT22;37677;53.254;6.594;2022-07-04T07:50:07;19.80;1.00
51595;DHT22;37677;53.254;6.594;2022-07-04T07:52:33;19.60;1.00
51595;DHT22;37677;53.254;6.594;2022-07-04T07:54:59;19.50;1.00
51595;DHT22;37677;53.254;6.594;2022-07-04T07:57:25;19.40;1.00
51595;DHT22;37677;53.254;6.594;2022-07-04T07:59:58;19.20;1.00
51595;DHT22;37677;53.254;6.594;2022-07-04T08:02:24;18.90;1.00
51595;DHT22;37677;53.254;6.594;2022-07-04T08:05:10;18.00;1.00
51595;DHT22;37677;53.254;6.594;2022-07-04T08:07:39;18.50;1.20
51595;DHT22;37677;53.254;6.594;2022-07-04T08:10:08;18.20;23.30
51595;DHT22;37677;53.254;6.594;2022-07-04T08:12:35;16.10;22.20
51595;DHT22;37677;53.254;6.594;2022-07-04T08:15:01;17.80;29.10
51595;DHT22;37677;53.254;6.594;2022-07-04T08:17:27;17.70;37.20
51595;DHT22;37677;53.254;6.594;2022-07-04T08:19:53;17.60;39.70
51595;DHT22;37677;53.254;6.594;2022-07-04T08:22:19;17.60;37.30
51595;DHT22;37677;53.254;6.594;2022-07-04T08:24:52;18.70;33.40
51595;DHT22;37677;53.254;6.594;2022-07-04T08:27:20;18.10;37.80
51595;DHT22;37677;53.254;6.594;2022-07-04T08:29:48;19.80;29.30
51595;DHT22;37677;53.254;6.594;2022-07-04T08:32:14;18.10;24.70
51595;DHT22;37677;53.254;6.594;2022-07-04T08:34:40;16.80;18.00
51595;DHT22;37677;53.254;6.594;2022-07-04T08:37:08;18.40;16.90
51595;DHT22;37677;53.254;6.594;2022-07-04T08:39:37;19.20;11.80
51595;DHT22;37677;53.254;6.594;2022-07-04T08:42:09;21.00;1.00
51595;DHT22;37677;53.254;6.594;2022-07-04T08:44:39;21.40;1.00
51595;DHT22;37677;53.254;6.594;2022-07-04T08:47:09;21.60;99.90
51595;DHT22;37677;53.254;6.594;2022-07-04T08:49:37;21.30;99.90
51595;DHT22;37677;53.254;6.594;2022-07-04T08:52:05;20.80;99.90
51595;DHT22;37677;53.254;6.594;2022-07-04T08:54:33;20.80;99.90
51595;DHT22;37677;53.254;6.594;2022-07-04T08:57:17;21.00;99.90
51595;DHT22;37677;53.254;6.594;2022-07-04T09:00:06;21.70;99.90
51595;DHT22;37677;53.254;6.594;2022-07-04T09:02:33;20.90;1.00
51595;DHT22;37677;53.254;6.594;2022-07-04T09:04:59;22.50;99.90
51595;DHT22;37677;53.254;6.594;2022-07-04T09:07:33;22.80;1.00
51595;DHT22;37677;53.254;6.594;2022-07-04T09:09:59;21.90;1.00
51595;DHT22;37677;53.254;6.594;2022-07-04T09:12:30;23.70;99.90
51595;DHT22;37677;53.254;6.594;2022-07-04T09:14:55;23.60;1.00
51595;DHT22;37677;53.254;6.594;2022-07-04T09:17:22;23.60;99.90
51595;DHT22;37677;53.254;6.594;2022-07-04T09:22:33;24.30;99.90
51595;DHT22;37677;53.254;6.594;2022-07-04T09:25:04;24.20;1.00
51595;DHT22;37677;53.254;6.594;2022-07-04T09:27:39;23.80;1.00
51595;DHT22;37677;53.254;6.594;2022-07-04T09:30:12;25.10;99.90
51595;DHT22;37677;53.254;6.594;2022-07-04T09:32:42;23.20;99.90
51595;DHT22;37677;53.254;6.594;2022-07-04T09:35:22;23.20;1.00
51595;DHT22;37677;53.254;6.594;2022-07-04T09:37:59;23.30;99.90
51595;DHT22;37677;53.254;6.594;2022-07-04T09:40:32;23.40;1.00
51595;DHT22;37677;53.254;6.594;2022-07-04T09:43:01;23.50;1.00
51595;DHT22;37677;53.254;6.594;2022-07-04T09:45:54;24.40;1.00
51595;DHT22;37677;53.254;6.594;2022-07-04T09:48:20;24.80;99.90
51595;DHT22;37677;53.254;6.594;2022-07-04T09:50:46;24.70;64.30
51595;DHT22;37677;53.254;6.594;2022-07-04T09:53:12;24.90;1.00
51595;DHT22;37677;53.254;6.594;2022-07-04T09:55:38;24.60;1.00
51595;DHT22;37677;53.254;6.594;2022-07-04T09:58:09;24.80;1.00
51595;DHT22;37677;53.254;6.594;2022-07-04T10:00:39;24.40;1.00
51595;DHT22;37677;53.254;6.594;2022-07-04T10:03:24;24.50;1.00
51595;DHT22;37677;53.254;6.594;2022-07-04T10:06:13;24.60;1.00
51595;DHT22;37677;53.254;6.594;2022-07-04T10:08:43;24.40;1.00
51595;DHT22;37677;53.254;6.594;2022-07-04T10:11:10;24.10;1.00
51595;DHT22;37677;53.254;6.594;2022-07-04T10:13:37;23.80;1.00
51595;DHT22;37677;53.254;6.594;2022-07-04T10:16:16;23.50;35.20
51595;DHT22;37677;53.254;6.594;2022-07-04T10:18:41;23.00;99.90
51595;DHT22;37677;53.254;6.594;2022-07-04T10:21:08;22.60;99.90
51595;DHT22;37677;53.254;6.594;2022-07-04T10:23:35;22.40;1.00
51595;DHT22;37677;53.254;6.594;2022-07-04T10:26:01;23.00;99.90
51595;DHT22;37677;53.254;6.594;2022-07-04T10:28:27;22.30;99.90
51595;DHT22;37677;53.254;6.594;2022-07-04T10:30:56;22.30;1.00
51595;DHT22;37677;53.254;6.594;2022-07-04T10:33:27;21.80;1.00
51595;DHT22;37677;53.254;6.594;2022-07-04T10:36:03;23.40;99.90
51595;DHT22;37677;53.254;6.594;2022-07-04T10:38:32;22.10;1.00
51595;DHT22;37677;53.254;6.594;2022-07-04T10:41:07;22.50;1.00
51595;DHT22;37677;53.254;6.594;2022-07-04T10:52:13;23.20;1.00
51595;DHT22;37677;53.254;6.594;2022-07-04T10:54:43;22.70;99.90
51595;DHT22;37677;53.254;6.594;2022-07-04T10:57:15;23.80;99.90
51595;DHT22;37677;53.254;6.594;2022-07-04T11:05:07;22.80;1.00
51595;DHT22;37677;53.254;6.594;2022-07-04T11:10:18;22.70;29.80
51595;DHT22;37677;53.254;6.594;2022-07-04T11:13:06;22.90;1.00
51595;DHT22;37677;53.254;6.594;2022-07-04T11:18:08;22.40;1.00
51595;DHT22;37677;53.254;6.594;2022-07-04T11:20:45;22.70;99.90
51595;DHT22;37677;53.254;6.594;2022-07-04T11:23:18;22.30;99.90
51595;DHT22;37677;53.254;6.594;2022-07-04T11:25:49;22.30;99.90
51595;DHT22;37677;53.254;6.594;2022-07-04T11:28:29;22.40;99.90
51595;DHT22;37677;53.254;6.594;2022-07-04T11:31:05;22.30;99.90
51595;DHT22;37677;53.254;6.594;2022-07-04T11:33:32;21.90;99.90
51595;DHT22;37677;53.254;6.594;2022-07-04T11:38:49;21.80;99.90
51595;DHT22;37677;53.254;6.594;2022-07-04T11:41:15;21.90;99.90
51595;DHT22;37677;53.254;6.594;2022-07-04T11:44:04;22.00;99.90
51595;DHT22;37677;53.254;6.594;2022-07-04T11:46:49;22.30;99.90
51595;DHT22;37677;53.254;6.594;2022-07-04T11:49:15;22.50;99.90
51595;DHT22;37677;53.254;6.594;2022-07-04T11:51:42;22.50;99.90
51595;DHT22;37677;53.254;6.594;2022-07-04T11:54:08;22.50;99.90
51595;DHT22;37677;53.254;6.594;2022-07-04T11:56:35;22.50;99.90
51595;DHT22;37677;53.254;6.594;2022-07-04T11:59:10;22.20;99.90
51595;DHT22;37677;53.254;6.594;2022-07-04T12:01:37;22.10;99.90
51595;DHT22;37677;53.254;6.594;2022-07-04T12:04:19;22.00;61.40
51595;DHT22;37677;53.254;6.594;2022-07-04T12:06:47;22.00;18.70
51595;DHT22;37677;53.254;6.594;2022-07-04T12:09:14;22.10;67.90
51595;DHT22;37677;53.254;6.594;2022-07-04T12:11:58;22.30;15.30
51595;DHT22;37677;53.254;6.594;2022-07-04T12:14:26;22.20;19.10
51595;DHT22;37677;53.254;6.594;2022-07-04T12:17:12;22.20;1.00
51595;DHT22;37677;53.254;6.594;2022-07-04T12:19:56;22.20;1.00
51595;DHT22;37677;53.254;6.594;2022-07-04T12:22:33;21.90;1.00
51595;DHT22;37677;53.254;6.594;2022-07-04T12:25:00;22.00;1.00
51595;DHT22;37677;53.254;6.594;2022-07-04T12:27:27;22.10;99.90
51595;DHT22;37677;53.254;6.594;2022-07-04T12:29:54;22.10;99.90
51595;DHT22;37677;53.254;6.594;2022-07-04T12:32:20;22.50;99.90
51595;DHT22;37677;53.254;6.594;2022-07-04T12:34:46;22.10;99.90
51595;DHT22;37677;53.254;6.594;2022-07-04T12:37:14;21.80;99.90
51595;DHT22;37677;53.254;6.594;2022-07-04T12:39:44;22.00;1.00
51595;DHT22;37677;53.254;6.594;2022-07-04T12:42:15;21.10;1.00
51595;DHT22;37677;53.254;6.594;2022-07-04T12:44:45;22.20;1.00
51595;DHT22;37677;53.254;6.594;2022-07-04T12:47:12;22.20;1.00
51595;DHT22;37677;53.254;6.594;2022-07-04T12:49:46;22.10;1.00
51595;DHT22;37677;53.254;6.594;2022-07-04T12:52:15;21.80;1.00
51595;DHT22;37677;53.254;6.594;2022-07-04T12:54:42;21.90;1.00
